sensor_id;sensor_type;location;lat;lon;timestamp;P1;P2;P0
51052;PMS5003;37093;37.716;-122.060;2022-12-18T00:01:05;10;10;
51052;PMS5003;37093;37.716;-122.060;2022-12-18T00:03:41;10;9;
51052;PMS5003;37093;37.716;-122.060;2022-12-18T00:06:10;14;10;
51052;PMS5003;37093;37.716;-122.060;2022-12-18T00:08:39;11;9;
51052;PMS5003;37093;37.716;-122.060;2022-12-18T00:11:07;11;9;
51052;PMS5003;37093;37.716;-122.060;2022-12-18T00:13:38;10;10;
51052;PMS5003;37093;37.716;-122.060;2022-12-18T00:16:07;10;9;
51052;PMS5003;37093;37.716;-122.060;2022-12-18T00:18:39;12;10;
51052;PMS5003;37093;37.716;-122.060;2022-12-18T00:21:09;13;12;
51052;PMS5003;37093;37.716;-122.060;2022-12-18T00:23:38;10;9;
51052;PMS5003;37093;37.716;-122.060;2022-12-18T00:26:14;27;13;
51052;PMS5003;37093;37.716;-122.060;2022-12-18T00:28:45;16;12;
51052;PMS5003;37093;37.716;-122.060;2022-12-18T00:31:14;15;8;
51052;PMS5003;37093;37.716;-122.060;2022-12-18T00:33:44;25;9;
51052;PMS5003;37093;37.716;-122.060;2022-12-18T00:36:13;13;11;
51052;PMS5003;37093;37.716;-122.060;2022-12-18T00:38:43;19;13;
51052;PMS5003;37093;37.716;-122.060;2022-12-18T00:41:12;12;12;
51052;PMS5003;37093;37.716;-122.060;2022-12-18T00:43:42;15;12;
51052;PMS5003;37093;37.716;-122.060;2022-12-18T00:46:10;12;12;
51052;PMS5003;37093;37.716;-122.060;2022-12-18T00:48:39;15;11;
51052;PMS5003;37093;37.716;-122.060;2022-12-18T00:51:07;14;11;
51052;PMS5003;37093;37.716;-122.060;2022-12-18T00:53:36;16;15;
51052;PMS5003;37093;37.716;-122.060;2022-12-18T00:56:04;15;14;
51052;PMS5003;37093;37.716;-122.060;2022-12-18T00:58:33;22;16;
51052;PMS5003;37093;37.716;-122.060;2022-12-18T01:02:07;13;12;
51052;PMS5003;37093;37.716;-122.060;2022-12-18T01:04:35;13;12;
51052;PMS5003;37093;37.716;-122.060;2022-12-18T01:07:04;14;14;
51052;PMS5003;37093;37.716;-122.060;2022-12-18T01:09:32;15;13;
51052;PMS5003;37093;37.716;-122.060;2022-12-18T01:12:01;13;11;
51052;PMS5003;37093;37.716;-122.060;2022-12-18T01:14:29;14;11;
51052;PMS5003;37093;37.716;-122.060;2022-12-18T01:16:58;14;13;
51052;PMS5003;37093;37.716;-122.060;2022-12-18T01:19:27;18;18;
51052;PMS5003;37093;37.716;-122.060;2022-12-18T01:21:55;30;18;
51052;PMS5003;37093;37.716;-122.060;2022-12-18T01:24:24;28;25;
51052;PMS5003;37093;37.716;-122.060;2022-12-18T01:26:53;23;17;
51052;PMS5003;37093;37.716;-122.060;2022-12-18T01:29:21;16;13;
51052;PMS5003;37093;37.716;-122.060;2022-12-18T01:31:49;28;18;
51052;PMS5003;37093;37.716;-122.060;2022-12-18T01:34:18;17;13;
51052;PMS5003;37093;37.716;-122.060;2022-12-18T01:36:46;18;17;
51052;PMS5003;37093;37.716;-122.060;2022-12-18T01:39:15;18;16;
51052;PMS5003;37093;37.716;-122.060;2022-12-18T01:41:43;20;18;
51052;PMS5003;37093;37.716;-122.060;2022-12-18T01:44:46;20;19;
51052;PMS5003;37093;37.716;-122.060;2022-12-18T01:47:24;21;19;
51052;PMS5003;37093;37.716;-122.060;2022-12-18T01:49:56;34;22;
51052;PMS5003;37093;37.716;-122.060;2022-12-18T01:52:27;26;23;
51052;PMS5003;37093;37.716;-122.060;2022-12-18T01:54:58;23;22;
51052;PMS5003;37093;37.716;-122.060;2022-12-18T01:57:29;18;18;
51052;PMS5003;37093;37.716;-122.060;2022-12-18T01:59:59;25;20;
51052;PMS5003;37093;37.716;-122.060;2022-12-18T02:02:30;21;20;
51052;PMS5003;37093;37.716;-122.060;2022-12-18T02:04:58;29;25;
51052;PMS5003;37093;37.716;-122.060;2022-12-18T02:07:30;26;22;
51052;PMS5003;37093;37.716;-122.060;2022-12-18T02:10:06;31;21;
51052;PMS5003;37093;37.716;-122.060;2022-12-18T02:12:42;30;25;
51052;PMS5003;37093;37.716;-122.060;2022-12-18T02:15:18;28;22;
51052;PMS5003;37093;37.716;-122.060;2022-12-18T02:17:53;23;21;
51052;PMS5003;37093;37.716;-122.060;2022-12-18T02:20:26;27;20;
51052;PMS5003;37093;37.716;-122.060;2022-12-18T02:23:04;22;19;
51052;PMS5003;37093;37.716;-122.060;2022-12-18T02:25:42;16;15;
51052;PMS5003;37093;37.716;-122.060;2022-12-18T02:28:51;19;17;
51052;PMS5003;37093;37.716;-122.060;2022-12-18T02:31:25;30;19;
51052;PMS5003;37093;37.716;-122.060;2022-12-18T02:33:58;25;17;
51052;PMS5003;37093;37.716;-122.060;2022-12-18T02:36:30;18;15;
51052;PMS5003;37093;37.716;-122.060;2022-12-18T02:39:01;26;17;
51052;PMS5003;37093;37.716;-122.060;2022-12-18T02:41:32;21;15;
51052;PMS5003;37093;37.716;-122.060;2022-12-18T02:44:06;21;20;
51052;PMS5003;37093;37.716;-122.060;2022-12-18T02:46:37;18;18;
51052;PMS5003;37093;37.716;-122.060;2022-12-18T02:49:12;23;17;
51052;PMS5003;37093;37.716;-122.060;2022-12-18T02:51:51;20;18;
51052;PMS5003;37093;37.716;-122.060;2022-12-18T02:54:26;23;17;
51052;PMS5003;37093;37.716;-122.060;2022-12-18T02:57:10;15;15;
51052;PMS5003;37093;37.716;-122.060;2022-12-18T02:59:47;30;19;
51052;PMS5003;37093;37.716;-122.060;2022-12-18T03:02:24;25;16;
51052;PMS5003;37093;37.716;-122.060;2022-12-18T03:05:02;20;15;
51052;PMS5003;37093;37.716;-122.060;2022-12-18T03:07:36;17;15;
51052;PMS5003;37093;37.716;-122.060;2022-12-18T03:10:09;18;18;
51052;PMS5003;37093;37.716;-122.060;2022-12-18T03:12:42;21;19;
51052;PMS5003;37093;37.716;-122.060;2022-12-18T03:15:16;21;21;
51052;PMS5003;37093;37.716;-122.060;2022-12-18T03:17:50;18;16;
51052;PMS5003;37093;37.716;-122.060;2022-12-18T03:20:23;33;19;
51052;PMS5003;37093;37.716;-122.060;2022-12-18T03:22:57;20;18;
51052;PMS5003;37093;37.716;-122.060;2022-12-18T03:25:31;25;19;
51052;PMS5003;37093;37.716;-122.060;2022-12-18T03:28:02;17;16;
51052;PMS5003;37093;37.716;-122.060;2022-12-18T03:30:34;17;16;
51052;PMS5003;37093;37.716;-122.060;2022-12-18T03:33:09;21;18;
51052;PMS5003;37093;37.716;-122.060;2022-12-18T03:35:42;21;16;
51052;PMS5003;37093;37.716;-122.060;2022-12-18T03:38:11;18;16;
51052;PMS5003;37093;37.716;-122.060;2022-12-18T03:40:45;22;16;
51052;PMS5003;37093;37.716;-122.060;2022-12-18T03:43:31;20;19;
51052;PMS5003;37093;37.716;-122.060;2022-12-18T03:46:11;18;15;
51052;PMS5003;37093;37.716;-122.060;2022-12-18T03:48:46;21;19;
51052;PMS5003;37093;37.716;-122.060;2022-12-18T03:51:21;22;20;
51052;PMS5003;37093;37.716;-122.060;2022-12-18T03:53:55;25;21;
51052;PMS5003;37093;37.716;-122.060;2022-12-18T03:56:28;33;19;
51052;PMS5003;37093;37.716;-122.060;2022-12-18T03:59:00;28;22;
51052;PMS5003;37093;37.716;-122.060;2022-12-18T04:01:32;26;22;
51052;PMS5003;37093;37.716;-122.060;2022-12-18T04:04:04;29;26;
51052;PMS5003;37093;37.716;-122.060;2022-12-18T04:06:35;24;23;
51052;PMS5003;37093;37.716;-122.060;2022-12-18T04:09:04;29;21;
51052;PMS5003;37093;37.716;-122.060;2022-12-18T04:11:33;24;21;
51052;PMS5003;37093;37.716;-122.060;2022-12-18T04:14:02;16;16;
51052;PMS5003;37093;37.716;-122.060;2022-12-18T04:16:30;21;17;
51052;PMS5003;37093;37.716;-122.060;2022-12-18T04:18:59;25;21;
51052;PMS5003;37093;37.716;-122.060;2022-12-18T04:21:27;18;15;
51052;PMS5003;37093;37.716;-122.060;2022-12-18T04:23:55;21;17;
51052;PMS5003;37093;37.716;-122.060;2022-12-18T04:26:24;32;22;
51052;PMS5003;37093;37.716;-122.060;2022-12-18T04:28:52;29;22;
51052;PMS5003;37093;37.716;-122.060;2022-12-18T04:31:21;21;17;
51052;PMS5003;37093;37.716;-122.060;2022-12-18T04:33:51;27;21;
51052;PMS5003;37093;37.716;-122.060;2022-12-18T04:36:19;19;17;
51052;PMS5003;37093;37.716;-122.060;2022-12-18T04:38:47;19;17;
51052;PMS5003;37093;37.716;-122.060;2022-12-18T04:41:15;19;18;
51052;PMS5003;37093;37.716;-122.060;2022-12-18T04:43:44;21;15;
51052;PMS5003;37093;37.716;-122.060;2022-12-18T04:46:13;21;19;
51052;PMS5003;37093;37.716;-122.060;2022-12-18T04:48:41;19;18;
51052;PMS5003;37093;37.716;-122.060;2022-12-18T04:51:12;20;16;
51052;PMS5003;37093;37.716;-122.060;2022-12-18T04:53:41;22;19;
51052;PMS5003;37093;37.716;-122.060;2022-12-18T04:56:09;22;20;
51052;PMS5003;37093;37.716;-122.060;2022-12-18T04:58:39;36;21;
51052;PMS5003;37093;37.716;-122.060;2022-12-18T05:01:12;26;19;
51052;PMS5003;37093;37.716;-122.060;2022-12-18T05:03:42;28;20;
51052;PMS5003;37093;37.716;-122.060;2022-12-18T05:06:10;23;16;
51052;PMS5003;37093;37.716;-122.060;2022-12-18T05:08:38;22;16;
51052;PMS5003;37093;37.716;-122.060;2022-12-18T05:11:08;22;19;
51052;PMS5003;37093;37.716;-122.060;2022-12-18T05:13:37;28;20;
51052;PMS5003;37093;37.716;-122.060;2022-12-18T05:16:06;22;20;
51052;PMS5003;37093;37.716;-122.060;2022-12-18T05:18:36;31;22;
51052;PMS5003;37093;37.716;-122.060;2022-12-18T05:21:05;34;25;
51052;PMS5003;37093;37.716;-122.060;2022-12-18T05:23:34;28;22;
51052;PMS5003;37093;37.716;-122.060;2022-12-18T05:26:04;31;18;
51052;PMS5003;37093;37.716;-122.060;2022-12-18T05:28:33;23;18;
51052;PMS5003;37093;37.716;-122.060;2022-12-18T05:31:03;24;18;
51052;PMS5003;37093;37.716;-122.060;2022-12-18T05:33:32;38;22;
51052;PMS5003;37093;37.716;-122.060;2022-12-18T05:36:02;27;19;
51052;PMS5003;37093;37.716;-122.060;2022-12-18T05:38:33;30;20;
51052;PMS5003;37093;37.716;-122.060;2022-12-18T05:41:03;21;19;
51052;PMS5003;37093;37.716;-122.060;2022-12-18T05:43:33;15;14;
51052;PMS5003;37093;37.716;-122.060;2022-12-18T05:46:04;22;17;
51052;PMS5003;37093;37.716;-122.060;2022-12-18T05:48:33;19;18;
51052;PMS5003;37093;37.716;-122.060;2022-12-18T05:51:04;34;19;
51052;PMS5003;37093;37.716;-122.060;2022-12-18T05:53:33;21;21;
51052;PMS5003;37093;37.716;-122.060;2022-12-18T05:56:03;24;20;
51052;PMS5003;37093;37.716;-122.060;2022-12-18T05:58:34;26;22;
51052;PMS5003;37093;37.716;-122.060;2022-12-18T06:01:07;27;20;
51052;PMS5003;37093;37.716;-122.060;2022-12-18T06:03:37;31;19;
51052;PMS5003;37093;37.716;-122.060;2022-12-18T06:06:12;26;21;
51052;PMS5003;37093;37.716;-122.060;2022-12-18T06:08:41;21;21;
51052;PMS5003;37093;37.716;-122.060;2022-12-18T06:11:10;25;23;
51052;PMS5003;37093;37.716;-122.060;2022-12-18T06:13:39;28;21;
51052;PMS5003;37093;37.716;-122.060;2022-12-18T06:16:07;29;19;
51052;PMS5003;37093;37.716;-122.060;2022-12-18T06:18:36;27;25;
51052;PMS5003;37093;37.716;-122.060;2022-12-18T06:21:04;40;29;
51052;PMS5003;37093;37.716;-122.060;2022-12-18T06:23:33;30;28;
51052;PMS5003;37093;37.716;-122.060;2022-12-18T06:26:03;42;28;
51052;PMS5003;37093;37.716;-122.060;2022-12-18T06:28:33;29;26;
51052;PMS5003;37093;37.716;-122.060;2022-12-18T06:31:02;35;26;
51052;PMS5003;37093;37.716;-122.060;2022-12-18T06:33:32;24;22;
51052;PMS5003;37093;37.716;-122.060;2022-12-18T06:36:00;28;21;
51052;PMS5003;37093;37.716;-122.060;2022-12-18T06:38:31;31;23;
51052;PMS5003;37093;37.716;-122.060;2022-12-18T06:40:59;28;22;
51052;PMS5003;37093;37.716;-122.060;2022-12-18T06:43:33;26;25;
51052;PMS5003;37093;37.716;-122.060;2022-12-18T06:46:01;27;23;
51052;PMS5003;37093;37.716;-122.060;2022-12-18T06:48:31;24;23;
51052;PMS5003;37093;37.716;-122.060;2022-12-18T06:50:59;21;20;
51052;PMS5003;37093;37.716;-122.060;2022-12-18T06:53:28;24;21;
51052;PMS5003;37093;37.716;-122.060;2022-12-18T06:56:00;26;24;
51052;PMS5003;37093;37.716;-122.060;2022-12-18T06:58:29;39;27;
51052;PMS5003;37093;37.716;-122.060;2022-12-18T07:00:59;35;22;
51052;PMS5003;37093;37.716;-122.060;2022-12-18T07:03:28;40;23;
51052;PMS5003;37093;37.716;-122.060;2022-12-18T07:05:57;27;21;
51052;PMS5003;37093;37.716;-122.060;2022-12-18T07:08:25;32;20;
51052;PMS5003;37093;37.716;-122.060;2022-12-18T07:10:55;29;25;
51052;PMS5003;37093;37.716;-122.060;2022-12-18T07:13:24;27;22;
51052;PMS5003;37093;37.716;-122.060;2022-12-18T07:15:53;25;21;
51052;PMS5003;37093;37.716;-122.060;2022-12-18T07:18:21;31;27;
51052;PMS5003;37093;37.716;-122.060;2022-12-18T07:20:49;28;24;
51052;PMS5003;37093;37.716;-122.060;2022-12-18T07:23:17;32;18;
51052;PMS5003;37093;37.716;-122.060;2022-12-18T07:25:46;43;26;
51052;PMS5003;37093;37.716;-122.060;2022-12-18T07:28:14;35;23;
51052;PMS5003;37093;37.716;-122.060;2022-12-18T07:30:43;36;24;
51052;PMS5003;37093;37.716;-122.060;2022-12-18T07:33:11;30;26;
51052;PMS5003;37093;37.716;-122.060;2022-12-18T07:35:39;25;24;
51052;PMS5003;37093;37.716;-122.060;2022-12-18T07:38:07;43;27;
51052;PMS5003;37093;37.716;-122.060;2022-12-18T07:40:36;33;27;
51052;PMS5003;37093;37.716;-122.060;2022-12-18T07:43:04;38;26;
51052;PMS5003;37093;37.716;-122.060;2022-12-18T07:45:32;34;27;
51052;PMS5003;37093;37.716;-122.060;2022-12-18T07:48:01;42;29;
51052;PMS5003;37093;37.716;-122.060;2022-12-18T07:50:29;49;30;
51052;PMS5003;37093;37.716;-122.060;2022-12-18T07:52:57;35;25;
51052;PMS5003;37093;37.716;-122.060;2022-12-18T07:55:26;27;26;
51052;PMS5003;37093;37.716;-122.060;2022-12-18T07:57:54;39;29;
51052;PMS5003;37093;37.716;-122.060;2022-12-18T08:01:11;29;21;
51052;PMS5003;37093;37.716;-122.060;2022-12-18T08:03:41;31;30;
51052;PMS5003;37093;37.716;-122.060;2022-12-18T08:06:10;38;27;
51052;PMS5003;37093;37.716;-122.060;2022-12-18T08:08:38;46;34;
51052;PMS5003;37093;37.716;-122.060;2022-12-18T08:11:07;35;29;
51052;PMS5003;37093;37.716;-122.060;2022-12-18T08:13:35;38;28;
51052;PMS5003;37093;37.716;-122.060;2022-12-18T08:16:04;46;34;
51052;PMS5003;37093;37.716;-122.060;2022-12-18T08:18:35;38;32;
51052;PMS5003;37093;37.716;-122.060;2022-12-18T08:21:08;48;28;
51052;PMS5003;37093;37.716;-122.060;2022-12-18T08:23:37;47;35;
51052;PMS5003;37093;37.716;-122.060;2022-12-18T08:26:05;48;27;
51052;PMS5003;37093;37.716;-122.060;2022-12-18T08:28:34;48;32;
51052;PMS5003;37093;37.716;-122.060;2022-12-18T08:31:03;41;28;
51052;PMS5003;37093;37.716;-122.060;2022-12-18T08:33:33;45;30;
51052;PMS5003;37093;37.716;-122.060;2022-12-18T08:36:02;51;38;
51052;PMS5003;37093;37.716;-122.060;2022-12-18T08:38:31;49;29;
51052;PMS5003;37093;37.716;-122.060;2022-12-18T08:41:01;46;35;
51052;PMS5003;37093;37.716;-122.060;2022-12-18T08:43:31;46;31;
51052;PMS5003;37093;37.716;-122.060;2022-12-18T08:45:59;58;36;
51052;PMS5003;37093;37.716;-122.060;2022-12-18T08:48:27;48;35;
51052;PMS5003;37093;37.716;-122.060;2022-12-18T08:50:55;44;30;
51052;PMS5003;37093;37.716;-122.060;2022-12-18T08:53:24;33;28;
51052;PMS5003;37093;37.716;-122.060;2022-12-18T08:55:55;45;34;
51052;PMS5003;37093;37.716;-122.060;2022-12-18T08:58:24;38;33;
51052;PMS5003;37093;37.716;-122.060;2022-12-18T09:00:53;47;36;
51052;PMS5003;37093;37.716;-122.060;2022-12-18T09:03:21;26;25;
51052;PMS5003;37093;37.716;-122.060;2022-12-18T09:05:49;40;33;
51052;PMS5003;37093;37.716;-122.060;2022-12-18T09:08:18;39;33;
51052;PMS5003;37093;37.716;-122.060;2022-12-18T09:10:47;47;27;
51052;PMS5003;37093;37.716;-122.060;2022-12-18T09:13:17;40;28;
51052;PMS5003;37093;37.716;-122.060;2022-12-18T09:15:47;51;35;
51052;PMS5003;37093;37.716;-122.060;2022-12-18T09:18:17;37;31;
51052;PMS5003;37093;37.716;-122.060;2022-12-18T09:20:47;36;31;
51052;PMS5003;37093;37.716;-122.060;2022-12-18T09:23:16;52;34;
51052;PMS5003;37093;37.716;-122.060;2022-12-18T09:25:44;48;32;
51052;PMS5003;37093;37.716;-122.060;2022-12-18T09:28:13;43;33;
51052;PMS5003;37093;37.716;-122.060;2022-12-18T09:30:43;42;30;
51052;PMS5003;37093;37.716;-122.060;2022-12-18T09:33:13;42;36;
51052;PMS5003;37093;37.716;-122.060;2022-12-18T09:35:42;42;30;
51052;PMS5003;37093;37.716;-122.060;2022-12-18T09:38:12;33;28;
51052;PMS5003;37093;37.716;-122.060;2022-12-18T09:40:43;43;32;
51052;PMS5003;37093;37.716;-122.060;2022-12-18T09:43:15;33;29;
51052;PMS5003;37093;37.716;-122.060;2022-12-18T09:45:49;40;33;
51052;PMS5003;37093;37.716;-122.060;2022-12-18T09:48:23;41;27;
51052;PMS5003;37093;37.716;-122.060;2022-12-18T09:50:55;37;30;
51052;PMS5003;37093;37.716;-122.060;2022-12-18T09:53:30;38;27;
51052;PMS5003;37093;37.716;-122.060;2022-12-18T09:56:02;34;27;
51052;PMS5003;37093;37.716;-122.060;2022-12-18T09:58:35;46;32;
51052;PMS5003;37093;37.716;-122.060;2022-12-18T10:01:09;46;31;
51052;PMS5003;37093;37.716;-122.060;2022-12-18T10:03:39;34;30;
51052;PMS5003;37093;37.716;-122.060;2022-12-18T10:06:08;36;29;
51052;PMS5003;37093;37.716;-122.060;2022-12-18T10:08:43;40;34;
51052;PMS5003;37093;37.716;-122.060;2022-12-18T10:11:25;45;30;
51052;PMS5003;37093;37.716;-122.060;2022-12-18T10:14:02;34;30;
51052;PMS5003;37093;37.716;-122.060;2022-12-18T10:16:41;32;28;
51052;PMS5003;37093;37.716;-122.060;2022-12-18T10:19:20;33;26;
51052;PMS5003;37093;37.716;-122.060;2022-12-18T10:22:01;38;30;
51052;PMS5003;37093;37.716;-122.060;2022-12-18T10:24:39;37;29;
51052;PMS5003;37093;37.716;-122.060;2022-12-18T10:27:15;51;28;
51052;PMS5003;37093;37.716;-122.060;2022-12-18T10:29:45;38;29;
51052;PMS5003;37093;37.716;-122.060;2022-12-18T10:32:14;34;24;
51052;PMS5003;37093;37.716;-122.060;2022-12-18T10:34:46;42;29;
51052;PMS5003;37093;37.716;-122.060;2022-12-18T10:37:16;36;30;
51052;PMS5003;37093;37.716;-122.060;2022-12-18T10:39:46;37;28;
51052;PMS5003;37093;37.716;-122.060;2022-12-18T10:42:32;42;25;
51052;PMS5003;37093;37.716;-122.060;2022-12-18T10:45:02;33;29;
51052;PMS5003;37093;37.716;-122.060;2022-12-18T10:47:42;31;25;
51052;PMS5003;37093;37.716;-122.060;2022-12-18T10:50:22;53;30;
51052;PMS5003;37093;37.716;-122.060;2022-12-18T10:52:57;32;26;
51052;PMS5003;37093;37.716;-122.060;2022-12-18T10:55:27;51;32;
51052;PMS5003;37093;37.716;-122.060;2022-12-18T10:58:13;47;31;
51052;PMS5003;37093;37.716;-122.060;2022-12-18T11:01:01;32;29;
51052;PMS5003;37093;37.716;-122.060;2022-12-18T11:03:33;45;31;
51052;PMS5003;37093;37.716;-122.060;2022-12-18T11:06:03;57;34;
51052;PMS5003;37093;37.716;-122.060;2022-12-18T11:08:34;45;32;
51052;PMS5003;37093;37.716;-122.060;2022-12-18T11:11:05;53;31;
51052;PMS5003;37093;37.716;-122.060;2022-12-18T11:13:49;32;28;
51052;PMS5003;37093;37.716;-122.060;2022-12-18T11:16:25;36;32;
51052;PMS5003;37093;37.716;-122.060;2022-12-18T11:18:55;45;30;
51052;PMS5003;37093;37.716;-122.060;2022-12-18T11:21:40;34;24;
51052;PMS5003;37093;37.716;-122.060;2022-12-18T11:24:15;35;29;
51052;PMS5003;37093;37.716;-122.060;2022-12-18T11:26:50;32;30;
51052;PMS5003;37093;37.716;-122.060;2022-12-18T11:29:22;36;29;
51052;PMS5003;37093;37.716;-122.060;2022-12-18T11:32:06;40;23;
51052;PMS5003;37093;37.716;-122.060;2022-12-18T11:34:55;27;24;
51052;PMS5003;37093;37.716;-122.060;2022-12-18T11:37:30;36;30;
51052;PMS5003;37093;37.716;-122.060;2022-12-18T11:40:00;38;30;
51052;PMS5003;37093;37.716;-122.060;2022-12-18T11:42:35;32;29;
51052;PMS5003;37093;37.716;-122.060;2022-12-18T11:45:28;29;24;
51052;PMS5003;37093;37.716;-122.060;2022-12-18T11:48:02;29;24;
51052;PMS5003;37093;37.716;-122.060;2022-12-18T11:50:40;47;31;
51052;PMS5003;37093;37.716;-122.060;2022-12-18T11:53:13;42;26;
51052;PMS5003;37093;37.716;-122.060;2022-12-18T11:55:43;34;24;
51052;PMS5003;37093;37.716;-122.060;2022-12-18T11:58:29;41;30;
51052;PMS5003;37093;37.716;-122.060;2022-12-18T12:01:13;38;26;
51052;PMS5003;37093;37.716;-122.060;2022-12-18T12:04:00;36;30;
51052;PMS5003;37093;37.716;-122.060;2022-12-18T12:06:43;34;29;
51052;PMS5003;37093;37.716;-122.060;2022-12-18T12:09:21;34;29;
51052;PMS5003;37093;37.716;-122.060;2022-12-18T12:12:01;31;22;
51052;PMS5003;37093;37.716;-122.060;2022-12-18T12:14:44;31;24;
51052;PMS5003;37093;37.716;-122.060;2022-12-18T12:17:22;29;29;
51052;PMS5003;37093;37.716;-122.060;2022-12-18T12:20:00;32;26;
51052;PMS5003;37093;37.716;-122.060;2022-12-18T12:22:38;36;29;
51052;PMS5003;37093;37.716;-122.060;2022-12-18T12:25:19;40;27;
51052;PMS5003;37093;37.716;-122.060;2022-12-18T12:28:00;29;27;
51052;PMS5003;37093;37.716;-122.060;2022-12-18T12:30:43;36;30;
51052;PMS5003;37093;37.716;-122.060;2022-12-18T12:33:25;37;27;
51052;PMS5003;37093;37.716;-122.060;2022-12-18T12:36:05;39;29;
51052;PMS5003;37093;37.716;-122.060;2022-12-18T12:38:41;48;28;
51052;PMS5003;37093;37.716;-122.060;2022-12-18T12:41:13;29;29;
51052;PMS5003;37093;37.716;-122.060;2022-12-18T12:43:45;35;30;
51052;PMS5003;37093;37.716;-122.060;2022-12-18T12:46:16;35;32;
51052;PMS5003;37093;37.716;-122.060;2022-12-18T12:48:48;42;30;
51052;PMS5003;37093;37.716;-122.060;2022-12-18T12:51:20;49;36;
51052;PMS5003;37093;37.716;-122.060;2022-12-18T12:53:51;55;40;
51052;PMS5003;37093;37.716;-122.060;2022-12-18T12:56:21;38;33;
51052;PMS5003;37093;37.716;-122.060;2022-12-18T12:58:55;55;41;
51052;PMS5003;37093;37.716;-122.060;2022-12-18T13:01:34;48;40;
51052;PMS5003;37093;37.716;-122.060;2022-12-18T13:04:12;41;32;
51052;PMS5003;37093;37.716;-122.060;2022-12-18T13:06:49;51;39;
51052;PMS5003;37093;37.716;-122.060;2022-12-18T13:09:24;52;41;
51052;PMS5003;37093;37.716;-122.060;2022-12-18T13:11:57;63;40;
51052;PMS5003;37093;37.716;-122.060;2022-12-18T13:14:30;46;36;
51052;PMS5003;37093;37.716;-122.060;2022-12-18T13:17:17;55;40;
51052;PMS5003;37093;37.716;-122.060;2022-12-18T13:20:07;55;36;
51052;PMS5003;37093;37.716;-122.060;2022-12-18T13:22:38;54;45;
51052;PMS5003;37093;37.716;-122.060;2022-12-18T13:25:41;40;37;
51052;PMS5003;37093;37.716;-122.060;2022-12-18T13:28:10;70;48;
51052;PMS5003;37093;37.716;-122.060;2022-12-18T13:30:44;55;43;
51052;PMS5003;37093;37.716;-122.060;2022-12-18T13:33:50;68;47;
51052;PMS5003;37093;37.716;-122.060;2022-12-18T13:36:42;43;37;
51052;PMS5003;37093;37.716;-122.060;2022-12-18T13:39:21;52;35;
51052;PMS5003;37093;37.716;-122.060;2022-12-18T13:43:23;33;33;
51052;PMS5003;37093;37.716;-122.060;2022-12-18T13:46:04;43;30;
51052;PMS5003;37093;37.716;-122.060;2022-12-18T13:48:49;39;28;
51052;PMS5003;37093;37.716;-122.060;2022-12-18T13:51:22;36;30;
51052;PMS5003;37093;37.716;-122.060;2022-12-18T13:53:53;48;29;
51052;PMS5003;37093;37.716;-122.060;2022-12-18T13:56:24;43;33;
51052;PMS5003;37093;37.716;-122.060;2022-12-18T13:59:32;56;38;
51052;PMS5003;37093;37.716;-122.060;2022-12-18T14:02:07;47;31;
51052;PMS5003;37093;37.716;-122.060;2022-12-18T14:04:40;49;32;
51052;PMS5003;37093;37.716;-122.060;2022-12-18T14:07:12;42;33;
51052;PMS5003;37093;37.716;-122.060;2022-12-18T14:09:44;53;39;
51052;PMS5003;37093;37.716;-122.060;2022-12-18T14:12:15;49;35;
51052;PMS5003;37093;37.716;-122.060;2022-12-18T14:14:45;39;32;
51052;PMS5003;37093;37.716;-122.060;2022-12-18T14:17:15;51;38;
51052;PMS5003;37093;37.716;-122.060;2022-12-18T14:19:45;44;37;
51052;PMS5003;37093;37.716;-122.060;2022-12-18T14:22:16;48;33;
51052;PMS5003;37093;37.716;-122.060;2022-12-18T14:24:46;63;38;
51052;PMS5003;37093;37.716;-122.060;2022-12-18T14:27:31;62;42;
51052;PMS5003;37093;37.716;-122.060;2022-12-18T14:30:22;60;46;
51052;PMS5003;37093;37.716;-122.060;2022-12-18T14:33:01;61;40;
51052;PMS5003;37093;37.716;-122.060;2022-12-18T14:35:30;59;44;
51052;PMS5003;37093;37.716;-122.060;2022-12-18T14:38:31;65;44;
51052;PMS5003;37093;37.716;-122.060;2022-12-18T14:41:01;57;39;
51052;PMS5003;37093;37.716;-122.060;2022-12-18T14:43:32;44;40;
51052;PMS5003;37093;37.716;-122.060;2022-12-18T14:46:01;65;43;
51052;PMS5003;37093;37.716;-122.060;2022-12-18T14:48:35;57;36;
51052;PMS5003;37093;37.716;-122.060;2022-12-18T14:51:06;52;39;
51052;PMS5003;37093;37.716;-122.060;2022-12-18T14:53:44;59;43;
51052;PMS5003;37093;37.716;-122.060;2022-12-18T14:56:15;68;48;
51052;PMS5003;37093;37.716;-122.060;2022-12-18T14:58:46;63;44;
51052;PMS5003;37093;37.716;-122.060;2022-12-18T15:01:26;56;44;
51052;PMS5003;37093;37.716;-122.060;2022-12-18T15:03:57;65;45;
51052;PMS5003;37093;37.716;-122.060;2022-12-18T15:06:29;72;49;
51052;PMS5003;37093;37.716;-122.060;2022-12-18T15:09:00;62;48;
51052;PMS5003;37093;37.716;-122.060;2022-12-18T15:11:46;62;48;
51052;PMS5003;37093;37.716;-122.060;2022-12-18T15:14:32;60;45;
51052;PMS5003;37093;37.716;-122.060;2022-12-18T15:17:04;65;47;
51052;PMS5003;37093;37.716;-122.060;2022-12-18T15:19:41;54;50;
51052;PMS5003;37093;37.716;-122.060;2022-12-18T15:22:19;62;45;
51052;PMS5003;37093;37.716;-122.060;2022-12-18T15:24:51;57;47;
51052;PMS5003;37093;37.716;-122.060;2022-12-18T15:27:22;62;42;
51052;PMS5003;37093;37.716;-122.060;2022-12-18T15:30:26;59;45;
51052;PMS5003;37093;37.716;-122.060;2022-12-18T15:33:16;63;48;
51052;PMS5003;37093;37.716;-122.060;2022-12-18T15:35:55;70;49;
51052;PMS5003;37093;37.716;-122.060;2022-12-18T15:38:25;67;47;
51052;PMS5003;37093;37.716;-122.060;2022-12-18T15:40:54;57;47;
51052;PMS5003;37093;37.716;-122.060;2022-12-18T15:43:23;76;55;
51052;PMS5003;37093;37.716;-122.060;2022-12-18T15:45:52;61;48;
51052;PMS5003;37093;37.716;-122.060;2022-12-18T15:48:21;79;57;
51052;PMS5003;37093;37.716;-122.060;2022-12-18T15:50:50;81;52;
51052;PMS5003;37093;37.716;-122.060;2022-12-18T15:53:21;55;50;
51052;PMS5003;37093;37.716;-122.060;2022-12-18T15:55:50;74;52;
51052;PMS5003;37093;37.716;-122.060;2022-12-18T15:58:18;62;51;
51052;PMS5003;37093;37.716;-122.060;2022-12-18T16:00:46;63;40;
51052;PMS5003;37093;37.716;-122.060;2022-12-18T16:03:14;61;44;
51052;PMS5003;37093;37.716;-122.060;2022-12-18T16:05:42;64;44;
51052;PMS5003;37093;37.716;-122.060;2022-12-18T16:08:10;62;49;
51052;PMS5003;37093;37.716;-122.060;2022-12-18T16:10:39;67;51;